sensor_id;sensor_type;location;lat;lon;timestamp;P1;durP1;ratioP1;P2;durP2;ratioP2
65717;SDS011;52445;52.466;-1.016;2022-09-17T00:00:37;1.35;;;1.10;;
65717;SDS011;52445;52.466;-1.016;2022-09-17T00:03:05;3.53;;;1.55;;
65717;SDS011;52445;52.466;-1.016;2022-09-17T00:05:32;1.90;;;1.63;;
65717;SDS011;52445;52.466;-1.016;2022-09-17T00:07:59;5.30;;;2.22;;
65717;SDS011;52445;52.466;-1.016;2022-09-17T00:10:26;5.45;;;1.95;;
65717;SDS011;52445;52.466;-1.016;2022-09-17T00:12:52;2.40;;;1.50;;
65717;SDS011;52445;52.466;-1.016;2022-09-17T00:15:19;3.50;;;2.17;;
65717;SDS011;52445;52.466;-1.016;2022-09-17T00:17:46;5.65;;;1.52;;
65717;SDS011;52445;52.466;-1.016;2022-09-17T00:20:14;2.25;;;1.80;;
65717;SDS011;52445;52.466;-1.016;2022-09-17T00:25:12;3.17;;;2.88;;
65717;SDS011;52445;52.466;-1.016;2022-09-17T00:27:40;3.33;;;1.60;;
65717;SDS011;52445;52.466;-1.016;2022-09-17T00:30:09;2.10;;;1.90;;
65717;SDS011;52445;52.466;-1.016;2022-09-17T00:32:37;3.25;;;1.95;;
65717;SDS011;52445;52.466;-1.016;2022-09-17T00:35:06;1.27;;;0.82;;
65717;SDS011;52445;52.466;-1.016;2022-09-17T00:37:35;1.83;;;1.60;;
65717;SDS011;52445;52.466;-1.016;2022-09-17T00:40:03;3.58;;;1.60;;
65717;SDS011;52445;52.466;-1.016;2022-09-17T00:42:29;2.88;;;1.65;;
65717;SDS011;52445;52.466;-1.016;2022-09-17T00:44:56;6.03;;;1.13;;
65717;SDS011;52445;52.466;-1.016;2022-09-17T00:50:20;3.83;;;2.00;;
65717;SDS011;52445;52.466;-1.016;2022-09-17T00:52:54;2.50;;;1.17;;
65717;SDS011;52445;52.466;-1.016;2022-09-17T00:55:29;2.65;;;2.25;;
65717;SDS011;52445;52.466;-1.016;2022-09-17T00:58:00;4.30;;;1.52;;
65717;SDS011;52445;52.466;-1.016;2022-09-17T01:00:29;3.50;;;1.45;;
65717;SDS011;52445;52.466;-1.016;2022-09-17T01:02:56;2.50;;;1.65;;
65717;SDS011;52445;52.466;-1.016;2022-09-17T01:05:27;3.15;;;1.55;;
65717;SDS011;52445;52.466;-1.016;2022-09-17T01:18:46;1.77;;;1.02;;
65717;SDS011;52445;52.466;-1.016;2022-09-17T01:34:40;2.28;;;1.80;;
65717;SDS011;52445;52.466;-1.016;2022-09-17T01:37:17;3.50;;;1.98;;
65717;SDS011;52445;52.466;-1.016;2022-09-17T01:40:01;1.98;;;0.68;;
65717;SDS011;52445;52.466;-1.016;2022-09-17T01:42:36;1.45;;;0.70;;
65717;SDS011;52445;52.466;-1.016;2022-09-17T01:50:38;2.63;;;1.10;;
65717;SDS011;52445;52.466;-1.016;2022-09-17T01:53:08;2.25;;;0.85;;
65717;SDS011;52445;52.466;-1.016;2022-09-17T01:55:37;1.25;;;0.50;;
65717;SDS011;52445;52.466;-1.016;2022-09-17T02:00:47;1.83;;;1.00;;
65717;SDS011;52445;52.466;-1.016;2022-09-17T02:03:20;2.22;;;1.15;;
65717;SDS011;52445;52.466;-1.016;2022-09-17T02:05:57;2.40;;;0.77;;
65717;SDS011;52445;52.466;-1.016;2022-09-17T02:11:20;2.50;;;1.23;;
65717;SDS011;52445;52.466;-1.016;2022-09-17T02:13:56;3.58;;;0.93;;
65717;SDS011;52445;52.466;-1.016;2022-09-17T02:16:27;1.60;;;1.27;;
65717;SDS011;52445;52.466;-1.016;2022-09-17T02:19:01;3.15;;;0.73;;
65717;SDS011;52445;52.466;-1.016;2022-09-17T02:24:11;3.80;;;0.93;;
65717;SDS011;52445;52.466;-1.016;2022-09-17T02:26:47;2.38;;;0.68;;
65717;SDS011;52445;52.466;-1.016;2022-09-17T02:29:23;3.55;;;0.98;;
65717;SDS011;52445;52.466;-1.016;2022-09-17T02:31:57;2.78;;;1.02;;
65717;SDS011;52445;52.466;-1.016;2022-09-17T02:34:24;3.38;;;1.20;;
65717;SDS011;52445;52.466;-1.016;2022-09-17T02:36:54;3.35;;;0.88;;
65717;SDS011;52445;52.466;-1.016;2022-09-17T02:39:22;5.10;;;1.00;;
65717;SDS011;52445;52.466;-1.016;2022-09-17T02:41:52;1.65;;;0.90;;
65717;SDS011;52445;52.466;-1.016;2022-09-17T02:44:48;1.33;;;0.65;;
65717;SDS011;52445;52.466;-1.016;2022-09-17T02:50:13;2.45;;;2.13;;
65717;SDS011;52445;52.466;-1.016;2022-09-17T02:52:56;2.85;;;1.92;;
65717;SDS011;52445;52.466;-1.016;2022-09-17T02:55:38;4.40;;;1.60;;
65717;SDS011;52445;52.466;-1.016;2022-09-17T03:00:44;1.75;;;1.00;;
65717;SDS011;52445;52.466;-1.016;2022-09-17T03:03:16;3.53;;;1.00;;
65717;SDS011;52445;52.466;-1.016;2022-09-17T03:05:48;3.67;;;1.30;;
65717;SDS011;52445;52.466;-1.016;2022-09-17T03:08:16;2.58;;;0.80;;
65717;SDS011;52445;52.466;-1.016;2022-09-17T03:10:45;2.20;;;1.38;;
65717;SDS011;52445;52.466;-1.016;2022-09-17T03:13:14;2.92;;;1.15;;
65717;SDS011;52445;52.466;-1.016;2022-09-17T03:15:41;2.97;;;1.38;;
65717;SDS011;52445;52.466;-1.016;2022-09-17T03:18:08;3.58;;;1.00;;
65717;SDS011;52445;52.466;-1.016;2022-09-17T03:20:35;5.43;;;1.20;;
65717;SDS011;52445;52.466;-1.016;2022-09-17T03:23:01;3.53;;;1.27;;
65717;SDS011;52445;52.466;-1.016;2022-09-17T03:25:28;1.85;;;0.98;;
65717;SDS011;52445;52.466;-1.016;2022-09-17T03:27:54;4.80;;;1.02;;
65717;SDS011;52445;52.466;-1.016;2022-09-17T03:30:21;3.08;;;0.98;;
65717;SDS011;52445;52.466;-1.016;2022-09-17T03:32:48;2.88;;;1.40;;
65717;SDS011;52445;52.466;-1.016;2022-09-17T03:35:14;3.70;;;1.08;;
65717;SDS011;52445;52.466;-1.016;2022-09-17T03:37:41;3.28;;;0.88;;
65717;SDS011;52445;52.466;-1.016;2022-09-17T03:40:08;3.88;;;0.95;;
65717;SDS011;52445;52.466;-1.016;2022-09-17T03:42:35;2.20;;;0.85;;
65717;SDS011;52445;52.466;-1.016;2022-09-17T03:45:02;4.07;;;1.45;;
65717;SDS011;52445;52.466;-1.016;2022-09-17T03:47:29;2.70;;;1.25;;
65717;SDS011;52445;52.466;-1.016;2022-09-17T03:49:55;4.28;;;1.25;;
65717;SDS011;52445;52.466;-1.016;2022-09-17T03:52:22;3.75;;;2.33;;
65717;SDS011;52445;52.466;-1.016;2022-09-17T03:54:49;4.05;;;2.80;;
65717;SDS011;52445;52.466;-1.016;2022-09-17T03:57:16;7.50;;;1.20;;
65717;SDS011;52445;52.466;-1.016;2022-09-17T03:59:42;3.85;;;1.42;;
65717;SDS011;52445;52.466;-1.016;2022-09-17T04:02:09;2.25;;;0.90;;
65717;SDS011;52445;52.466;-1.016;2022-09-17T04:04:35;2.95;;;2.22;;
65717;SDS011;52445;52.466;-1.016;2022-09-17T04:07:02;2.70;;;1.05;;
65717;SDS011;52445;52.466;-1.016;2022-09-17T04:09:29;2.15;;;1.00;;
65717;SDS011;52445;52.466;-1.016;2022-09-17T04:12:00;2.85;;;1.20;;
65717;SDS011;52445;52.466;-1.016;2022-09-17T04:14:27;4.00;;;1.40;;
65717;SDS011;52445;52.466;-1.016;2022-09-17T04:16:53;3.80;;;1.13;;
65717;SDS011;52445;52.466;-1.016;2022-09-17T04:19:20;4.25;;;2.35;;
65717;SDS011;52445;52.466;-1.016;2022-09-17T04:21:46;2.40;;;1.15;;
65717;SDS011;52445;52.466;-1.016;2022-09-17T04:24:13;2.08;;;1.00;;
65717;SDS011;52445;52.466;-1.016;2022-09-17T04:26:39;2.72;;;1.10;;
65717;SDS011;52445;52.466;-1.016;2022-09-17T04:29:06;3.42;;;1.05;;
65717;SDS011;52445;52.466;-1.016;2022-09-17T04:31:33;5.28;;;2.47;;
65717;SDS011;52445;52.466;-1.016;2022-09-17T04:33:59;3.55;;;1.20;;
65717;SDS011;52445;52.466;-1.016;2022-09-17T04:36:26;3.35;;;1.38;;
65717;SDS011;52445;52.466;-1.016;2022-09-17T04:38:53;4.55;;;1.17;;
65717;SDS011;52445;52.466;-1.016;2022-09-17T04:41:19;4.85;;;1.27;;
65717;SDS011;52445;52.466;-1.016;2022-09-17T04:43:46;3.65;;;1.08;;
65717;SDS011;52445;52.466;-1.016;2022-09-17T04:46:13;5.25;;;1.58;;
65717;SDS011;52445;52.466;-1.016;2022-09-17T04:48:39;2.13;;;0.95;;
65717;SDS011;52445;52.466;-1.016;2022-09-17T04:51:06;4.75;;;1.48;;
65717;SDS011;52445;52.466;-1.016;2022-09-17T04:53:33;3.70;;;1.65;;
65717;SDS011;52445;52.466;-1.016;2022-09-17T04:55:59;3.05;;;1.30;;
65717;SDS011;52445;52.466;-1.016;2022-09-17T04:58:26;2.70;;;1.13;;
65717;SDS011;52445;52.466;-1.016;2022-09-17T05:00:52;4.03;;;1.40;;
65717;SDS011;52445;52.466;-1.016;2022-09-17T05:03:19;2.85;;;1.25;;
65717;SDS011;52445;52.466;-1.016;2022-09-17T05:05:46;3.92;;;1.40;;
65717;SDS011;52445;52.466;-1.016;2022-09-17T05:08:12;5.72;;;1.52;;
65717;SDS011;52445;52.466;-1.016;2022-09-17T05:10:39;3.08;;;1.58;;
65717;SDS011;52445;52.466;-1.016;2022-09-17T05:13:05;3.78;;;1.63;;
65717;SDS011;52445;52.466;-1.016;2022-09-17T05:15:32;3.20;;;1.40;;
65717;SDS011;52445;52.466;-1.016;2022-09-17T05:17:58;4.07;;;2.10;;
65717;SDS011;52445;52.466;-1.016;2022-09-17T05:20:25;3.17;;;1.38;;
65717;SDS011;52445;52.466;-1.016;2022-09-17T05:22:52;5.57;;;1.77;;
65717;SDS011;52445;52.466;-1.016;2022-09-17T05:25:20;2.97;;;1.27;;
65717;SDS011;52445;52.466;-1.016;2022-09-17T05:27:50;5.32;;;2.83;;
65717;SDS011;52445;52.466;-1.016;2022-09-17T05:30:18;3.78;;;1.45;;
65717;SDS011;52445;52.466;-1.016;2022-09-17T05:32:44;4.13;;;1.58;;
65717;SDS011;52445;52.466;-1.016;2022-09-17T05:35:12;3.47;;;1.30;;
65717;SDS011;52445;52.466;-1.016;2022-09-17T05:37:39;4.20;;;3.10;;
65717;SDS011;52445;52.466;-1.016;2022-09-17T05:40:07;3.13;;;1.38;;
65717;SDS011;52445;52.466;-1.016;2022-09-17T05:42:34;3.20;;;1.40;;
65717;SDS011;52445;52.466;-1.016;2022-09-17T05:45:01;5.45;;;4.10;;
65717;SDS011;52445;52.466;-1.016;2022-09-17T05:47:28;8.02;;;4.35;;
65717;SDS011;52445;52.466;-1.016;2022-09-17T05:49:54;9.88;;;5.10;;
65717;SDS011;52445;52.466;-1.016;2022-09-17T05:52:21;5.88;;;3.63;;
65717;SDS011;52445;52.466;-1.016;2022-09-17T05:54:48;4.43;;;2.55;;
65717;SDS011;52445;52.466;-1.016;2022-09-17T05:57:14;6.07;;;2.97;;
65717;SDS011;52445;52.466;-1.016;2022-09-17T05:59:41;7.53;;;2.83;;
65717;SDS011;52445;52.466;-1.016;2022-09-17T06:02:10;13.00;;;3.58;;
65717;SDS011;52445;52.466;-1.016;2022-09-17T06:04:39;8.68;;;4.50;;
65717;SDS011;52445;52.466;-1.016;2022-09-17T06:07:05;5.38;;;2.53;;
65717;SDS011;52445;52.466;-1.016;2022-09-17T06:09:35;3.63;;;1.52;;
65717;SDS011;52445;52.466;-1.016;2022-09-17T06:12:03;6.20;;;1.60;;
65717;SDS011;52445;52.466;-1.016;2022-09-17T06:14:30;3.55;;;1.33;;
65717;SDS011;52445;52.466;-1.016;2022-09-17T06:16:57;7.35;;;3.67;;
65717;SDS011;52445;52.466;-1.016;2022-09-17T06:19:23;6.00;;;2.53;;
65717;SDS011;52445;52.466;-1.016;2022-09-17T06:21:50;3.58;;;1.92;;
65717;SDS011;52445;52.466;-1.016;2022-09-17T06:24:17;4.45;;;1.83;;
65717;SDS011;52445;52.466;-1.016;2022-09-17T06:26:43;8.20;;;1.52;;
65717;SDS011;52445;52.466;-1.016;2022-09-17T06:29:10;3.25;;;1.30;;
65717;SDS011;52445;52.466;-1.016;2022-09-17T06:31:40;3.63;;;1.73;;
65717;SDS011;52445;52.466;-1.016;2022-09-17T06:34:10;5.63;;;1.75;;
65717;SDS011;52445;52.466;-1.016;2022-09-17T06:36:37;4.03;;;1.60;;
65717;SDS011;52445;52.466;-1.016;2022-09-17T06:39:03;4.65;;;1.63;;
65717;SDS011;52445;52.466;-1.016;2022-09-17T06:41:30;4.15;;;1.55;;
65717;SDS011;52445;52.466;-1.016;2022-09-17T06:43:56;6.03;;;2.85;;
65717;SDS011;52445;52.466;-1.016;2022-09-17T06:46:24;4.20;;;3.10;;
65717;SDS011;52445;52.466;-1.016;2022-09-17T06:48:50;4.85;;;3.03;;
65717;SDS011;52445;52.466;-1.016;2022-09-17T06:51:17;2.78;;;1.50;;
65717;SDS011;52445;52.466;-1.016;2022-09-17T06:53:43;7.63;;;4.03;;
65717;SDS011;52445;52.466;-1.016;2022-09-17T06:56:10;12.90;;;3.38;;
65717;SDS011;52445;52.466;-1.016;2022-09-17T06:58:37;7.50;;;2.45;;
65717;SDS011;52445;52.466;-1.016;2022-09-17T07:01:04;9.02;;;2.40;;
65717;SDS011;52445;52.466;-1.016;2022-09-17T07:03:31;4.10;;;1.80;;
65717;SDS011;52445;52.466;-1.016;2022-09-17T07:05:58;5.20;;;1.98;;
65717;SDS011;52445;52.466;-1.016;2022-09-17T07:08:25;6.35;;;2.03;;
65717;SDS011;52445;52.466;-1.016;2022-09-17T07:10:54;3.25;;;1.40;;
65717;SDS011;52445;52.466;-1.016;2022-09-17T07:13:22;7.50;;;1.75;;
65717;SDS011;52445;52.466;-1.016;2022-09-17T07:15:53;5.90;;;2.30;;
65717;SDS011;52445;52.466;-1.016;2022-09-17T07:18:21;3.90;;;1.10;;
65717;SDS011;52445;52.466;-1.016;2022-09-17T07:20:57;3.10;;;1.20;;
65717;SDS011;52445;52.466;-1.016;2022-09-17T07:23:27;3.22;;;1.02;;
65717;SDS011;52445;52.466;-1.016;2022-09-17T07:25:57;1.73;;;0.90;;
65717;SDS011;52445;52.466;-1.016;2022-09-17T07:28:25;0.93;;;0.43;;
65717;SDS011;52445;52.466;-1.016;2022-09-17T07:30:52;2.92;;;0.82;;
65717;SDS011;52445;52.466;-1.016;2022-09-17T07:33:21;3.10;;;0.70;;
65717;SDS011;52445;52.466;-1.016;2022-09-17T07:35:53;1.48;;;0.75;;
65717;SDS011;52445;52.466;-1.016;2022-09-17T07:38:30;4.68;;;1.10;;
65717;SDS011;52445;52.466;-1.016;2022-09-17T07:40:58;2.35;;;0.82;;
65717;SDS011;52445;52.466;-1.016;2022-09-17T07:43:34;2.45;;;1.35;;
65717;SDS011;52445;52.466;-1.016;2022-09-17T07:46:02;2.05;;;1.60;;
65717;SDS011;52445;52.466;-1.016;2022-09-17T07:48:30;4.50;;;2.17;;
65717;SDS011;52445;52.466;-1.016;2022-09-17T07:50:57;2.53;;;2.40;;
65717;SDS011;52445;52.466;-1.016;2022-09-17T07:53:24;1.88;;;1.60;;
65717;SDS011;52445;52.466;-1.016;2022-09-17T07:58:30;1.70;;;0.73;;
65717;SDS011;52445;52.466;-1.016;2022-09-17T08:03:34;1.65;;;0.50;;
65717;SDS011;52445;52.466;-1.016;2022-09-17T08:08:38;1.67;;;0.85;;
65717;SDS011;52445;52.466;-1.016;2022-09-17T08:11:07;2.72;;;0.82;;
65717;SDS011;52445;52.466;-1.016;2022-09-17T08:13:36;1.77;;;0.43;;
65717;SDS011;52445;52.466;-1.016;2022-09-17T08:16:04;1.10;;;0.73;;
65717;SDS011;52445;52.466;-1.016;2022-09-17T08:18:34;2.30;;;0.82;;
65717;SDS011;52445;52.466;-1.016;2022-09-17T08:21:01;1.13;;;0.35;;
65717;SDS011;52445;52.466;-1.016;2022-09-17T08:23:30;1.77;;;0.98;;
65717;SDS011;52445;52.466;-1.016;2022-09-17T08:25:57;1.67;;;0.70;;
65717;SDS011;52445;52.466;-1.016;2022-09-17T08:28:26;2.65;;;0.50;;
65717;SDS011;52445;52.466;-1.016;2022-09-17T08:31:00;2.58;;;0.30;;
65717;SDS011;52445;52.466;-1.016;2022-09-17T08:33:32;2.67;;;1.05;;
65717;SDS011;52445;52.466;-1.016;2022-09-17T08:36:01;1.25;;;0.60;;
65717;SDS011;52445;52.466;-1.016;2022-09-17T08:38:29;5.93;;;0.57;;
65717;SDS011;52445;52.466;-1.016;2022-09-17T08:43:48;1.13;;;0.55;;
65717;SDS011;52445;52.466;-1.016;2022-09-17T08:46:25;2.90;;;0.80;;
65717;SDS011;52445;52.466;-1.016;2022-09-17T08:48:59;5.00;;;0.50;;
65717;SDS011;52445;52.466;-1.016;2022-09-17T08:51:45;2.95;;;0.60;;
65717;SDS011;52445;52.466;-1.016;2022-09-17T08:57:24;1.63;;;1.27;;
65717;SDS011;52445;52.466;-1.016;2022-09-17T09:00:03;2.08;;;1.50;;
65717;SDS011;52445;52.466;-1.016;2022-09-17T09:02:42;1.60;;;1.50;;
65717;SDS011;52445;52.466;-1.016;2022-09-17T09:05:40;0.98;;;0.68;;
65717;SDS011;52445;52.466;-1.016;2022-09-17T09:11:03;2.80;;;0.63;;
65717;SDS011;52445;52.466;-1.016;2022-09-17T09:13:34;1.90;;;1.33;;
65717;SDS011;52445;52.466;-1.016;2022-09-17T09:16:05;1.23;;;1.13;;
65717;SDS011;52445;52.466;-1.016;2022-09-17T09:18:39;1.98;;;0.40;;
65717;SDS011;52445;52.466;-1.016;2022-09-17T09:23:55;1.83;;;0.40;;
65717;SDS011;52445;52.466;-1.016;2022-09-17T09:32:14;2.75;;;1.13;;
65717;SDS011;52445;52.466;-1.016;2022-09-17T09:40:35;1.98;;;0.70;;
65717;SDS011;52445;52.466;-1.016;2022-09-17T09:43:15;2.03;;;0.50;;
65717;SDS011;52445;52.466;-1.016;2022-09-17T09:57:03;0.50;;;0.35;;
65717;SDS011;52445;52.466;-1.016;2022-09-17T09:59:33;0.70;;;0.35;;
65717;SDS011;52445;52.466;-1.016;2022-09-17T10:02:02;1.35;;;0.60;;
65717;SDS011;52445;52.466;-1.016;2022-09-17T10:04:29;1.25;;;0.38;;
65717;SDS011;52445;52.466;-1.016;2022-09-17T10:07:06;0.80;;;0.20;;
65717;SDS011;52445;52.466;-1.016;2022-09-17T10:09:36;1.63;;;0.30;;
65717;SDS011;52445;52.466;-1.016;2022-09-17T10:12:14;1.85;;;0.30;;
65717;SDS011;52445;52.466;-1.016;2022-09-17T10:14:43;1.30;;;0.30;;
65717;SDS011;52445;52.466;-1.016;2022-09-17T10:17:27;1.15;;;0.88;;
65717;SDS011;52445;52.466;-1.016;2022-09-17T10:22:38;2.05;;;1.05;;
65717;SDS011;52445;52.466;-1.016;2022-09-17T10:25:26;1.23;;;0.45;;
65717;SDS011;52445;52.466;-1.016;2022-09-17T10:27:55;4.47;;;0.80;;
65717;SDS011;52445;52.466;-1.016;2022-09-17T10:30:25;2.78;;;0.50;;
65717;SDS011;52445;52.466;-1.016;2022-09-17T10:36:04;1.85;;;1.27;;
65717;SDS011;52445;52.466;-1.016;2022-09-17T10:38:36;1.80;;;0.55;;
65717;SDS011;52445;52.466;-1.016;2022-09-17T10:41:07;2.63;;;2.42;;
65717;SDS011;52445;52.466;-1.016;2022-09-17T10:43:44;2.60;;;2.17;;
65717;SDS011;52445;52.466;-1.016;2022-09-17T10:46:13;1.92;;;1.83;;
65717;SDS011;52445;52.466;-1.016;2022-09-17T10:48:42;1.35;;;1.25;;
65717;SDS011;52445;52.466;-1.016;2022-09-17T10:51:19;2.17;;;1.58;;
65717;SDS011;52445;52.466;-1.016;2022-09-17T10:53:58;3.75;;;1.73;;
65717;SDS011;52445;52.466;-1.016;2022-09-17T10:56:35;3.35;;;2.05;;
65717;SDS011;52445;52.466;-1.016;2022-09-17T11:02:25;2.38;;;2.10;;
65717;SDS011;52445;52.466;-1.016;2022-09-17T11:10:35;2.60;;;1.88;;
65717;SDS011;52445;52.466;-1.016;2022-09-17T11:13:12;1.55;;;0.60;;
65717;SDS011;52445;52.466;-1.016;2022-09-17T11:22:01;0.90;;;0.50;;
65717;SDS011;52445;52.466;-1.016;2022-09-17T11:30:03;1.08;;;0.50;;
65717;SDS011;52445;52.466;-1.016;2022-09-17T11:38:00;1.17;;;0.32;;
65717;SDS011;52445;52.466;-1.016;2022-09-17T11:43:16;2.05;;;0.52;;
65717;SDS011;52445;52.466;-1.016;2022-09-17T11:45:53;1.17;;;0.68;;
65717;SDS011;52445;52.466;-1.016;2022-09-17T11:48:27;1.83;;;0.65;;
65717;SDS011;52445;52.466;-1.016;2022-09-17T11:51:02;1.98;;;1.02;;
65717;SDS011;52445;52.466;-1.016;2022-09-17T11:53:42;4.13;;;0.77;;
65717;SDS011;52445;52.466;-1.016;2022-09-17T12:07:26;5.93;;;2.20;;
65717;SDS011;52445;52.466;-1.016;2022-09-17T12:10:19;6.35;;;1.52;;
65717;SDS011;52445;52.466;-1.016;2022-09-17T12:15:38;2.83;;;0.75;;
65717;SDS011;52445;52.466;-1.016;2022-09-17T12:20:52;1.80;;;1.45;;
65717;SDS011;52445;52.466;-1.016;2022-09-17T12:26:22;2.47;;;1.73;;
65717;SDS011;52445;52.466;-1.016;2022-09-17T12:31:56;2.40;;;0.40;;
65717;SDS011;52445;52.466;-1.016;2022-09-17T12:43:20;1.75;;;1.65;;
65717;SDS011;52445;52.466;-1.016;2022-09-17T12:54:15;2.35;;;1.42;;
65717;SDS011;52445;52.466;-1.016;2022-09-17T12:59:34;2.80;;;0.30;;
65717;SDS011;52445;52.466;-1.016;2022-09-17T13:05:03;1.13;;;0.32;;
65717;SDS011;52445;52.466;-1.016;2022-09-17T13:07:51;2.55;;;0.40;;
65717;SDS011;52445;52.466;-1.016;2022-09-17T13:10:43;0.60;;;0.55;;
65717;SDS011;52445;52.466;-1.016;2022-09-17T13:21:30;1.05;;;0.95;;
65717;SDS011;52445;52.466;-1.016;2022-09-17T13:24:16;1.75;;;1.38;;
65717;SDS011;52445;52.466;-1.016;2022-09-17T13:26:45;1.27;;;0.60;;
65717;SDS011;52445;52.466;-1.016;2022-09-17T13:29:12;2.08;;;1.38;;
65717;SDS011;52445;52.466;-1.016;2022-09-17T13:40:34;0.88;;;0.47;;
65717;SDS011;52445;52.466;-1.016;2022-09-17T13:48:35;1.88;;;0.88;;
65717;SDS011;52445;52.466;-1.016;2022-09-17T13:54:05;2.72;;;1.52;;
65717;SDS011;52445;52.466;-1.016;2022-09-17T13:56:35;3.47;;;0.98;;
65717;SDS011;52445;52.466;-1.016;2022-09-17T13:59:06;1.50;;;1.40;;
65717;SDS011;52445;52.466;-1.016;2022-09-17T14:09:59;2.40;;;0.45;;
65717;SDS011;52445;52.466;-1.016;2022-09-17T14:21:04;2.88;;;1.63;;
65717;SDS011;52445;52.466;-1.016;2022-09-17T14:23:43;2.13;;;1.83;;
65717;SDS011;52445;52.466;-1.016;2022-09-17T14:26:17;2.25;;;1.52;;
65717;SDS011;52445;52.466;-1.016;2022-09-17T14:28:55;3.45;;;1.80;;
65717;SDS011;52445;52.466;-1.016;2022-09-17T14:31:30;1.80;;;1.00;;
65717;SDS011;52445;52.466;-1.016;2022-09-17T14:34:03;1.13;;;1.02;;
65717;SDS011;52445;52.466;-1.016;2022-09-17T14:36:33;2.20;;;2.00;;
65717;SDS011;52445;52.466;-1.016;2022-09-17T14:39:03;4.07;;;1.55;;
65717;SDS011;52445;52.466;-1.016;2022-09-17T14:41:38;2.65;;;1.70;;
65717;SDS011;52445;52.466;-1.016;2022-09-17T14:46:49;4.03;;;1.08;;
65717;SDS011;52445;52.466;-1.016;2022-09-17T14:49:37;1.33;;;0.80;;
65717;SDS011;52445;52.466;-1.016;2022-09-17T14:52:18;1.80;;;0.73;;
65717;SDS011;52445;52.466;-1.016;2022-09-17T14:57:55;4.65;;;0.70;;
65717;SDS011;52445;52.466;-1.016;2022-09-17T15:00:24;4.63;;;1.33;;
65717;SDS011;52445;52.466;-1.016;2022-09-17T15:02:56;4.18;;;0.93;;
65717;SDS011;52445;52.466;-1.016;2022-09-17T15:08:06;2.75;;;0.50;;
65717;SDS011;52445;52.466;-1.016;2022-09-17T15:10:44;1.27;;;0.50;;
65717;SDS011;52445;52.466;-1.016;2022-09-17T15:13:15;2.15;;;0.60;;
65717;SDS011;52445;52.466;-1.016;2022-09-17T15:15:53;3.83;;;0.60;;
65717;SDS011;52445;52.466;-1.016;2022-09-17T15:18:29;2.28;;;0.77;;
65717;SDS011;52445;52.466;-1.016;2022-09-17T15:20:59;1.77;;;0.68;;
65717;SDS011;52445;52.466;-1.016;2022-09-17T15:23:28;1.17;;;0.50;;
65717;SDS011;52445;52.466;-1.016;2022-09-17T15:25:58;1.70;;;0.50;;
65717;SDS011;52445;52.466;-1.016;2022-09-17T15:28:27;3.13;;;0.98;;
65717;SDS011;52445;52.466;-1.016;2022-09-17T15:30:59;2.95;;;0.82;;
65717;SDS011;52445;52.466;-1.016;2022-09-17T15:33:26;2.00;;;1.00;;
65717;SDS011;52445;52.466;-1.016;2022-09-17T15:38:57;3.17;;;0.43;;
65717;SDS011;52445;52.466;-1.016;2022-09-17T15:41:28;1.30;;;0.50;;
65717;SDS011;52445;52.466;-1.016;2022-09-17T15:44:14;4.55;;;0.68;;
65717;SDS011;52445;52.466;-1.016;2022-09-17T15:52:47;2.63;;;1.70;;
65717;SDS011;52445;52.466;-1.016;2022-09-17T15:55:31;4.47;;;1.95;;
65717;SDS011;52445;52.466;-1.016;2022-09-17T15:58:01;1.83;;;1.55;;
65717;SDS011;52445;52.466;-1.016;2022-09-17T16:00:30;3.08;;;1.88;;
65717;SDS011;52445;52.466;-1.016;2022-09-17T16:02:57;2.10;;;1.90;;
65717;SDS011;52445;52.466;-1.016;2022-09-17T16:08:19;1.60;;;1.08;;
65717;SDS011;52445;52.466;-1.016;2022-09-17T16:10:47;1.15;;;0.43;;
65717;SDS011;52445;52.466;-1.016;2022-09-17T16:13:14;1.35;;;0.60;;
65717;SDS011;52445;52.466;-1.016;2022-09-17T16:15:40;1.00;;;0.57;;
65717;SDS011;52445;52.466;-1.016;2022-09-17T16:18:10;1.55;;;0.40;;
65717;SDS011;52445;52.466;-1.016;2022-09-17T16:20:38;3.35;;;0.47;;
65717;SDS011;52445;52.466;-1.016;2022-09-17T16:23:04;2.03;;;0.50;;
65717;SDS011;52445;52.466;-1.016;2022-09-17T16:25:31;1.30;;;0.40;;
65717;SDS011;52445;52.466;-1.016;2022-09-17T16:27:58;3.60;;;0.70;;
65717;SDS011;52445;52.466;-1.016;2022-09-17T16:30:28;0.93;;;0.40;;
65717;SDS011;52445;52.466;-1.016;2022-09-17T16:32:54;3.95;;;0.63;;
65717;SDS011;52445;52.466;-1.016;2022-09-17T16:35:22;0.68;;;0.50;;
65717;SDS011;52445;52.466;-1.016;2022-09-17T16:37:51;2.38;;;0.40;;
65717;SDS011;52445;52.466;-1.016;2022-09-17T16:40:20;2.33;;;0.55;;
65717;SDS011;52445;52.466;-1.016;2022-09-17T16:42:48;0.88;;;0.55;;
65717;SDS011;52445;52.466;-1.016;2022-09-17T16:45:15;0.60;;;0.30;;
65717;SDS011;52445;52.466;-1.016;2022-09-17T16:47:42;0.93;;;0.30;;
65717;SDS011;52445;52.466;-1.016;2022-09-17T16:50:10;1.90;;;0.60;;
65717;SDS011;52445;52.466;-1.016;2022-09-17T16:52:39;1.90;;;0.45;;
65717;SDS011;52445;52.466;-1.016;2022-09-17T16:55:06;1.30;;;0.40;;
65717;SDS011;52445;52.466;-1.016;2022-09-17T16:57:33;1.98;;;0.50;;
65717;SDS011;52445;52.466;-1.016;2022-09-17T17:00:00;1.45;;;0.45;;
65717;SDS011;52445;52.466;-1.016;2022-09-17T17:02:27;1.90;;;0.60;;
65717;SDS011;52445;52.466;-1.016;2022-09-17T17:04:53;1.95;;;0.30;;
65717;SDS011;52445;52.466;-1.016;2022-09-17T17:07:20;2.15;;;0.20;;
65717;SDS011;52445;52.466;-1.016;2022-09-17T17:09:47;0.82;;;0.60;;
65717;SDS011;52445;52.466;-1.016;2022-09-17T17:12:13;0.93;;;0.35;;
65717;SDS011;52445;52.466;-1.016;2022-09-17T17:14:40;1.30;;;0.40;;
65717;SDS011;52445;52.466;-1.016;2022-09-17T17:17:06;3.05;;;0.20;;
65717;SDS011;52445;52.466;-1.016;2022-09-17T17:19:33;3.25;;;0.90;;
65717;SDS011;52445;52.466;-1.016;2022-09-17T17:22:00;1.15;;;0.45;;
65717;SDS011;52445;52.466;-1.016;2022-09-17T17:24:27;1.20;;;0.45;;
65717;SDS011;52445;52.466;-1.016;2022-09-17T17:26:53;2.05;;;0.55;;
65717;SDS011;52445;52.466;-1.016;2022-09-17T17:29:20;1.38;;;0.30;;
65717;SDS011;52445;52.466;-1.016;2022-09-17T17:31:47;0.70;;;0.32;;
65717;SDS011;52445;52.466;-1.016;2022-09-17T17:34:14;1.77;;;0.40;;
65717;SDS011;52445;52.466;-1.016;2022-09-17T17:36:41;1.98;;;0.50;;
65717;SDS011;52445;52.466;-1.016;2022-09-17T17:39:08;1.98;;;0.40;;
65717;SDS011;52445;52.466;-1.016;2022-09-17T17:41:35;1.10;;;0.50;;
65717;SDS011;52445;52.466;-1.016;2022-09-17T17:44:01;1.70;;;0.50;;
65717;SDS011;52445;52.466;-1.016;2022-09-17T17:46:28;3.40;;;0.68;;
65717;SDS011;52445;52.466;-1.016;2022-09-17T17:48:54;1.67;;;0.30;;
65717;SDS011;52445;52.466;-1.016;2022-09-17T17:51:22;1.25;;;0.70;;
65717;SDS011;52445;52.466;-1.016;2022-09-17T17:53:49;1.48;;;0.40;;
65717;SDS011;52445;52.466;-1.016;2022-09-17T17:56:16;0.68;;;0.30;;
65717;SDS011;52445;52.466;-1.016;2022-09-17T17:58:43;2.78;;;0.40;;
65717;SDS011;52445;52.466;-1.016;2022-09-17T18:03:46;2.60;;;0.52;;
65717;SDS011;52445;52.466;-1.016;2022-09-17T18:06:13;1.33;;;0.60;;
65717;SDS011;52445;52.466;-1.016;2022-09-17T18:08:40;2.72;;;0.30;;
65717;SDS011;52445;52.466;-1.016;2022-09-17T18:11:09;1.67;;;0.30;;
65717;SDS011;52445;52.466;-1.016;2022-09-17T18:13:36;1.73;;;0.65;;
65717;SDS011;52445;52.466;-1.016;2022-09-17T18:16:04;3.33;;;0.45;;
65717;SDS011;52445;52.466;-1.016;2022-09-17T18:18:34;4.00;;;0.75;;
65717;SDS011;52445;52.466;-1.016;2022-09-17T18:21:11;3.05;;;0.85;;
65717;SDS011;52445;52.466;-1.016;2022-09-17T18:23:40;3.63;;;1.20;;
65717;SDS011;52445;52.466;-1.016;2022-09-17T18:26:10;1.55;;;0.50;;
65717;SDS011;52445;52.466;-1.016;2022-09-17T18:28:38;1.33;;;0.60;;
65717;SDS011;52445;52.466;-1.016;2022-09-17T18:31:06;1.00;;;0.30;;
65717;SDS011;52445;52.466;-1.016;2022-09-17T18:33:34;1.67;;;0.30;;
65717;SDS011;52445;52.466;-1.016;2022-09-17T18:36:02;2.08;;;0.95;;
65717;SDS011;52445;52.466;-1.016;2022-09-17T18:38:30;1.40;;;0.77;;
65717;SDS011;52445;52.466;-1.016;2022-09-17T18:41:01;4.22;;;0.50;;
65717;SDS011;52445;52.466;-1.016;2022-09-17T18:43:29;3.50;;;1.02;;
65717;SDS011;52445;52.466;-1.016;2022-09-17T18:45:58;3.47;;;0.88;;